sensor_id;sensor_type;location;lat;lon;timestamp;P1;durP1;ratioP1;P2;durP2;ratioP2
21905;SDS011;11117;48.644;9.006;2022-07-29T00:00:57;9.02;;;7.85;;
21905;SDS011;11117;48.644;9.006;2022-07-29T00:03:22;8.48;;;7.57;;
21905;SDS011;11117;48.644;9.006;2022-07-29T00:05:48;10.45;;;7.80;;
21905;SDS011;11117;48.644;9.006;2022-07-29T00:08:13;8.85;;;7.28;;
21905;SDS011;11117;48.644;9.006;2022-07-29T00:10:39;8.55;;;7.65;;
21905;SDS011;11117;48.644;9.006;2022-07-29T00:13:04;8.02;;;7.28;;
21905;SDS011;11117;48.644;9.006;2022-07-29T00:15:30;9.93;;;7.85;;
21905;SDS011;11117;48.644;9.006;2022-07-29T00:17:55;9.05;;;8.20;;
21905;SDS011;11117;48.644;9.006;2022-07-29T00:20:21;11.10;;;8.02;;
21905;SDS011;11117;48.644;9.006;2022-07-29T00:22:46;8.95;;;6.88;;
21905;SDS011;11117;48.644;9.006;2022-07-29T00:25:12;8.18;;;7.38;;
21905;SDS011;11117;48.644;9.006;2022-07-29T00:27:38;7.65;;;6.88;;
21905;SDS011;11117;48.644;9.006;2022-07-29T00:30:07;8.48;;;7.10;;
21905;SDS011;11117;48.644;9.006;2022-07-29T00:32:33;7.53;;;6.80;;
21905;SDS011;11117;48.644;9.006;2022-07-29T00:34:59;8.45;;;6.80;;
21905;SDS011;11117;48.644;9.006;2022-07-29T00:37:24;10.07;;;7.00;;
21905;SDS011;11117;48.644;9.006;2022-07-29T00:39:53;8.10;;;6.50;;
21905;SDS011;11117;48.644;9.006;2022-07-29T00:42:18;8.30;;;6.82;;
21905;SDS011;11117;48.644;9.006;2022-07-29T00:44:44;7.05;;;6.35;;
21905;SDS011;11117;48.644;9.006;2022-07-29T00:47:10;6.93;;;6.25;;
21905;SDS011;11117;48.644;9.006;2022-07-29T00:49:37;7.22;;;6.53;;
21905;SDS011;11117;48.644;9.006;2022-07-29T00:52:05;8.73;;;6.82;;
21905;SDS011;11117;48.644;9.006;2022-07-29T00:54:31;8.07;;;6.68;;
21905;SDS011;11117;48.644;9.006;2022-07-29T00:56:58;8.00;;;6.38;;
21905;SDS011;11117;48.644;9.006;2022-07-29T00:59:25;9.73;;;7.32;;
21905;SDS011;11117;48.644;9.006;2022-07-29T01:01:51;7.65;;;6.82;;
21905;SDS011;11117;48.644;9.006;2022-07-29T01:04:17;9.52;;;7.20;;
21905;SDS011;11117;48.644;9.006;2022-07-29T01:06:42;8.27;;;7.18;;
21905;SDS011;11117;48.644;9.006;2022-07-29T01:09:08;12.13;;;7.20;;
21905;SDS011;11117;48.644;9.006;2022-07-29T01:11:35;9.80;;;7.03;;
21905;SDS011;11117;48.644;9.006;2022-07-29T01:14:01;10.82;;;7.10;;
21905;SDS011;11117;48.644;9.006;2022-07-29T01:16:32;9.68;;;7.53;;
21905;SDS011;11117;48.644;9.006;2022-07-29T01:19:10;7.93;;;6.88;;
21905;SDS011;11117;48.644;9.006;2022-07-29T01:21:58;12.30;;;7.15;;
21905;SDS011;11117;48.644;9.006;2022-07-29T01:24:42;8.95;;;7.15;;
21905;SDS011;11117;48.644;9.006;2022-07-29T01:30:24;10.73;;;8.00;;
21905;SDS011;11117;48.644;9.006;2022-07-29T01:32:54;11.00;;;8.40;;
21905;SDS011;11117;48.644;9.006;2022-07-29T01:35:26;8.90;;;8.00;;
21905;SDS011;11117;48.644;9.006;2022-07-29T01:38:08;14.25;;;8.23;;
21905;SDS011;11117;48.644;9.006;2022-07-29T01:40:54;12.80;;;8.23;;
21905;SDS011;11117;48.644;9.006;2022-07-29T01:43:30;15.00;;;9.45;;
21905;SDS011;11117;48.644;9.006;2022-07-29T01:46:08;13.80;;;9.37;;
21905;SDS011;11117;48.644;9.006;2022-07-29T01:49:39;13.67;;;9.43;;
21905;SDS011;11117;48.644;9.006;2022-07-29T01:51:40;16.20;;;9.60;;
21905;SDS011;11117;48.644;9.006;2022-07-29T01:54:28;10.90;;;8.75;;
21905;SDS011;11117;48.644;9.006;2022-07-29T01:56:59;11.80;;;8.68;;
21905;SDS011;11117;48.644;9.006;2022-07-29T01:59:26;12.65;;;7.63;;
21905;SDS011;11117;48.644;9.006;2022-07-29T02:01:54;8.93;;;7.37;;
21905;SDS011;11117;48.644;9.006;2022-07-29T02:04:21;7.80;;;6.73;;
21905;SDS011;11117;48.644;9.006;2022-07-29T02:06:49;8.57;;;6.40;;
21905;SDS011;11117;48.644;9.006;2022-07-29T02:09:17;9.37;;;6.30;;
21905;SDS011;11117;48.644;9.006;2022-07-29T02:11:47;7.90;;;5.80;;
21905;SDS011;11117;48.644;9.006;2022-07-29T02:14:17;9.70;;;6.17;;
21905;SDS011;11117;48.644;9.006;2022-07-29T02:16:44;6.28;;;5.68;;
21905;SDS011;11117;48.644;9.006;2022-07-29T02:19:13;6.77;;;5.97;;
21905;SDS011;11117;48.644;9.006;2022-07-29T02:21:40;7.10;;;5.90;;
21905;SDS011;11117;48.644;9.006;2022-07-29T02:24:06;6.78;;;5.90;;
21905;SDS011;11117;48.644;9.006;2022-07-29T02:26:33;7.00;;;5.72;;
21905;SDS011;11117;48.644;9.006;2022-07-29T02:28:59;8.38;;;6.03;;
21905;SDS011;11117;48.644;9.006;2022-07-29T02:31:30;12.80;;;5.57;;
21905;SDS011;11117;48.644;9.006;2022-07-29T02:33:59;12.20;;;6.80;;
21905;SDS011;11117;48.644;9.006;2022-07-29T02:36:31;8.90;;;7.23;;
21905;SDS011;11117;48.644;9.006;2022-07-29T02:38:58;12.90;;;8.83;;
21905;SDS011;11117;48.644;9.006;2022-07-29T02:44:28;11.17;;;8.20;;
21905;SDS011;11117;48.644;9.006;2022-07-29T02:46:59;11.97;;;8.70;;
21905;SDS011;11117;48.644;9.006;2022-07-29T02:49:52;8.70;;;7.80;;
21905;SDS011;11117;48.644;9.006;2022-07-29T02:55:01;9.37;;;8.10;;
21905;SDS011;11117;48.644;9.006;2022-07-29T02:57:41;10.63;;;8.00;;
21905;SDS011;11117;48.644;9.006;2022-07-29T03:00:11;10.73;;;8.37;;
21905;SDS011;11117;48.644;9.006;2022-07-29T03:02:43;13.37;;;8.77;;
21905;SDS011;11117;48.644;9.006;2022-07-29T03:05:11;10.70;;;8.30;;
21905;SDS011;11117;48.644;9.006;2022-07-29T03:07:40;15.57;;;8.60;;
21905;SDS011;11117;48.644;9.006;2022-07-29T03:10:10;10.90;;;9.60;;
21905;SDS011;11117;48.644;9.006;2022-07-29T03:12:37;11.07;;;8.90;;
21905;SDS011;11117;48.644;9.006;2022-07-29T03:15:03;11.40;;;9.17;;
21905;SDS011;11117;48.644;9.006;2022-07-29T03:17:30;11.47;;;9.70;;
21905;SDS011;11117;48.644;9.006;2022-07-29T03:19:57;10.30;;;9.20;;
21905;SDS011;11117;48.644;9.006;2022-07-29T03:22:24;12.57;;;9.57;;
21905;SDS011;11117;48.644;9.006;2022-07-29T03:24:50;11.60;;;9.60;;
21905;SDS011;11117;48.644;9.006;2022-07-29T03:27:15;10.67;;;9.30;;
21905;SDS011;11117;48.644;9.006;2022-07-29T03:29:41;11.97;;;9.03;;
21905;SDS011;11117;48.644;9.006;2022-07-29T03:32:07;11.63;;;8.30;;
21905;SDS011;11117;48.644;9.006;2022-07-29T03:34:36;11.93;;;9.00;;
21905;SDS011;11117;48.644;9.006;2022-07-29T03:37:02;11.37;;;8.37;;
21905;SDS011;11117;48.644;9.006;2022-07-29T03:39:29;9.83;;;8.10;;
21905;SDS011;11117;48.644;9.006;2022-07-29T03:42:00;11.60;;;8.23;;
21905;SDS011;11117;48.644;9.006;2022-07-29T03:44:27;8.17;;;7.40;;
21905;SDS011;11117;48.644;9.006;2022-07-29T03:46:57;9.03;;;7.30;;
21905;SDS011;11117;48.644;9.006;2022-07-29T03:49:24;9.80;;;7.43;;
21905;SDS011;11117;48.644;9.006;2022-07-29T03:51:51;8.10;;;7.00;;
21905;SDS011;11117;48.644;9.006;2022-07-29T03:54:17;8.10;;;6.97;;
21905;SDS011;11117;48.644;9.006;2022-07-29T03:56:43;8.03;;;6.20;;
21905;SDS011;11117;48.644;9.006;2022-07-29T03:59:11;9.37;;;6.50;;
21905;SDS011;11117;48.644;9.006;2022-07-29T04:01:39;7.10;;;6.23;;
21905;SDS011;11117;48.644;9.006;2022-07-29T04:04:05;7.40;;;6.27;;
21905;SDS011;11117;48.644;9.006;2022-07-29T04:06:41;8.97;;;6.57;;
21905;SDS011;11117;48.644;9.006;2022-07-29T04:09:08;6.73;;;6.03;;
21905;SDS011;11117;48.644;9.006;2022-07-29T04:11:35;8.33;;;5.93;;
21905;SDS011;11117;48.644;9.006;2022-07-29T04:14:02;6.27;;;5.67;;
21905;SDS011;11117;48.644;9.006;2022-07-29T04:16:28;6.57;;;5.60;;
21905;SDS011;11117;48.644;9.006;2022-07-29T04:18:55;6.63;;;5.83;;
21905;SDS011;11117;48.644;9.006;2022-07-29T04:21:21;8.43;;;5.90;;
21905;SDS011;11117;48.644;9.006;2022-07-29T04:23:46;8.17;;;5.03;;
21905;SDS011;11117;48.644;9.006;2022-07-29T04:26:12;5.60;;;5.10;;
21905;SDS011;11117;48.644;9.006;2022-07-29T04:28:37;5.93;;;5.33;;
21905;SDS011;11117;48.644;9.006;2022-07-29T04:31:03;7.03;;;5.07;;
21905;SDS011;11117;48.644;9.006;2022-07-29T04:33:28;5.53;;;5.03;;
21905;SDS011;11117;48.644;9.006;2022-07-29T04:35:54;5.70;;;5.20;;
21905;SDS011;11117;48.644;9.006;2022-07-29T04:38:20;5.80;;;5.00;;
21905;SDS011;11117;48.644;9.006;2022-07-29T04:40:46;5.53;;;5.03;;
21905;SDS011;11117;48.644;9.006;2022-07-29T04:43:11;5.40;;;4.90;;
21905;SDS011;11117;48.644;9.006;2022-07-29T04:45:37;5.70;;;4.93;;
21905;SDS011;11117;48.644;9.006;2022-07-29T04:48:03;5.05;;;4.65;;
21905;SDS011;11117;48.644;9.006;2022-07-29T04:50:28;14.85;;;5.43;;
21905;SDS011;11117;48.644;9.006;2022-07-29T04:52:54;5.88;;;4.80;;
21905;SDS011;11117;48.644;9.006;2022-07-29T04:55:20;4.88;;;4.03;;
21905;SDS011;11117;48.644;9.006;2022-07-29T04:57:45;8.55;;;4.45;;
21905;SDS011;11117;48.644;9.006;2022-07-29T05:00:11;6.70;;;4.43;;
21905;SDS011;11117;48.644;9.006;2022-07-29T05:02:37;7.68;;;5.25;;
21905;SDS011;11117;48.644;9.006;2022-07-29T05:05:03;4.95;;;4.47;;
21905;SDS011;11117;48.644;9.006;2022-07-29T05:07:29;6.03;;;5.10;;
21905;SDS011;11117;48.644;9.006;2022-07-29T05:09:55;6.90;;;4.93;;
21905;SDS011;11117;48.644;9.006;2022-07-29T05:12:20;5.55;;;4.40;;
21905;SDS011;11117;48.644;9.006;2022-07-29T05:14:46;5.30;;;4.32;;
21905;SDS011;11117;48.644;9.006;2022-07-29T05:17:11;8.85;;;4.38;;
21905;SDS011;11117;48.644;9.006;2022-07-29T05:19:37;6.80;;;5.03;;
21905;SDS011;11117;48.644;9.006;2022-07-29T05:22:02;5.03;;;4.18;;
21905;SDS011;11117;48.644;9.006;2022-07-29T05:24:28;7.38;;;4.05;;
21905;SDS011;11117;48.644;9.006;2022-07-29T05:26:54;7.50;;;3.40;;
21905;SDS011;11117;48.644;9.006;2022-07-29T05:29:19;4.82;;;3.85;;
21905;SDS011;11117;48.644;9.006;2022-07-29T05:31:45;6.68;;;4.25;;
21905;SDS011;11117;48.644;9.006;2022-07-29T05:34:10;7.90;;;3.60;;
21905;SDS011;11117;48.644;9.006;2022-07-29T05:36:36;6.32;;;3.53;;
21905;SDS011;11117;48.644;9.006;2022-07-29T05:39:01;4.40;;;3.75;;
21905;SDS011;11117;48.644;9.006;2022-07-29T05:41:27;5.57;;;3.85;;
21905;SDS011;11117;48.644;9.006;2022-07-29T05:43:56;5.78;;;3.90;;
21905;SDS011;11117;48.644;9.006;2022-07-29T05:46:21;4.90;;;3.90;;
21905;SDS011;11117;48.644;9.006;2022-07-29T05:48:47;4.88;;;3.80;;
21905;SDS011;11117;48.644;9.006;2022-07-29T05:51:15;3.60;;;3.30;;
21905;SDS011;11117;48.644;9.006;2022-07-29T05:53:41;5.78;;;3.55;;
21905;SDS011;11117;48.644;9.006;2022-07-29T05:56:09;4.72;;;3.60;;
21905;SDS011;11117;48.644;9.006;2022-07-29T05:58:35;4.32;;;3.50;;
21905;SDS011;11117;48.644;9.006;2022-07-29T06:01:00;5.93;;;3.60;;
21905;SDS011;11117;48.644;9.006;2022-07-29T06:03:26;5.32;;;3.70;;
21905;SDS011;11117;48.644;9.006;2022-07-29T06:05:52;4.45;;;3.80;;
21905;SDS011;11117;48.644;9.006;2022-07-29T06:08:18;3.95;;;3.53;;
21905;SDS011;11117;48.644;9.006;2022-07-29T06:10:46;5.47;;;3.80;;
21905;SDS011;11117;48.644;9.006;2022-07-29T06:13:12;6.47;;;3.97;;
21905;SDS011;11117;48.644;9.006;2022-07-29T06:15:38;3.83;;;3.38;;
21905;SDS011;11117;48.644;9.006;2022-07-29T06:18:03;4.82;;;3.55;;
21905;SDS011;11117;48.644;9.006;2022-07-29T06:20:29;4.38;;;3.65;;
21905;SDS011;11117;48.644;9.006;2022-07-29T06:22:56;6.35;;;3.33;;
21905;SDS011;11117;48.644;9.006;2022-07-29T06:25:21;3.50;;;3.20;;
21905;SDS011;11117;48.644;9.006;2022-07-29T06:27:47;7.20;;;3.80;;
21905;SDS011;11117;48.644;9.006;2022-07-29T06:30:13;5.35;;;3.42;;
21905;SDS011;11117;48.644;9.006;2022-07-29T06:32:51;4.75;;;3.60;;
21905;SDS011;11117;48.644;9.006;2022-07-29T06:35:18;7.75;;;3.42;;
21905;SDS011;11117;48.644;9.006;2022-07-29T06:37:53;4.07;;;3.65;;
21905;SDS011;11117;48.644;9.006;2022-07-29T06:40:19;6.22;;;3.55;;
21905;SDS011;11117;48.644;9.006;2022-07-29T06:42:45;6.15;;;4.03;;
21905;SDS011;11117;48.644;9.006;2022-07-29T06:45:14;7.63;;;4.00;;
21905;SDS011;11117;48.644;9.006;2022-07-29T06:47:40;4.70;;;4.10;;
21905;SDS011;11117;48.644;9.006;2022-07-29T06:50:05;4.97;;;3.92;;
21905;SDS011;11117;48.644;9.006;2022-07-29T06:52:38;4.35;;;3.90;;
21905;SDS011;11117;48.644;9.006;2022-07-29T06:55:12;4.63;;;4.05;;
21905;SDS011;11117;48.644;9.006;2022-07-29T06:57:56;8.27;;;4.25;;
21905;SDS011;11117;48.644;9.006;2022-07-29T07:03:23;4.45;;;4.03;;
21905;SDS011;11117;48.644;9.006;2022-07-29T07:05:54;6.38;;;3.92;;
21905;SDS011;11117;48.644;9.006;2022-07-29T07:08:35;5.57;;;4.15;;
21905;SDS011;11117;48.644;9.006;2022-07-29T07:11:08;7.22;;;4.20;;
21905;SDS011;11117;48.644;9.006;2022-07-29T07:16:28;6.40;;;4.05;;
21905;SDS011;11117;48.644;9.006;2022-07-29T07:19:05;10.35;;;4.22;;
21905;SDS011;11117;48.644;9.006;2022-07-29T07:21:34;7.13;;;4.60;;
21905;SDS011;11117;48.644;9.006;2022-07-29T07:24:00;5.63;;;4.03;;
21905;SDS011;11117;48.644;9.006;2022-07-29T07:26:27;6.90;;;4.70;;
21905;SDS011;11117;48.644;9.006;2022-07-29T07:28:53;7.90;;;4.90;;
21905;SDS011;11117;48.644;9.006;2022-07-29T07:31:19;5.40;;;4.35;;
21905;SDS011;11117;48.644;9.006;2022-07-29T07:33:48;8.43;;;4.68;;
21905;SDS011;11117;48.644;9.006;2022-07-29T07:36:22;6.65;;;4.22;;
21905;SDS011;11117;48.644;9.006;2022-07-29T07:38:48;6.85;;;4.43;;
21905;SDS011;11117;48.644;9.006;2022-07-29T07:41:20;5.30;;;4.10;;
21905;SDS011;11117;48.644;9.006;2022-07-29T07:43:52;10.27;;;4.97;;
21905;SDS011;11117;48.644;9.006;2022-07-29T07:46:18;5.50;;;4.43;;
21905;SDS011;11117;48.644;9.006;2022-07-29T07:48:43;6.40;;;3.95;;
21905;SDS011;11117;48.644;9.006;2022-07-29T07:51:09;9.27;;;4.63;;
21905;SDS011;11117;48.644;9.006;2022-07-29T07:54:20;4.72;;;3.92;;
21905;SDS011;11117;48.644;9.006;2022-07-29T07:56:26;7.13;;;4.57;;
21905;SDS011;11117;48.644;9.006;2022-07-29T07:58:56;7.40;;;4.40;;
21905;SDS011;11117;48.644;9.006;2022-07-29T08:01:25;5.65;;;4.55;;
21905;SDS011;11117;48.644;9.006;2022-07-29T08:06:42;4.15;;;3.75;;
21905;SDS011;11117;48.644;9.006;2022-07-29T08:09:13;6.18;;;4.45;;
21905;SDS011;11117;48.644;9.006;2022-07-29T08:11:45;5.57;;;4.10;;
21905;SDS011;11117;48.644;9.006;2022-07-29T08:17:33;8.43;;;4.50;;
21905;SDS011;11117;48.644;9.006;2022-07-29T08:20:02;5.05;;;4.10;;
21905;SDS011;11117;48.644;9.006;2022-07-29T08:22:47;8.18;;;4.18;;
21905;SDS011;11117;48.644;9.006;2022-07-29T08:42:06;7.72;;;3.80;;
21905;SDS011;11117;48.644;9.006;2022-07-29T08:55:36;7.28;;;4.18;;
21905;SDS011;11117;48.644;9.006;2022-07-29T08:58:36;8.13;;;3.75;;
21905;SDS011;11117;48.644;9.006;2022-07-29T09:05:15;6.28;;;4.20;;
21905;SDS011;11117;48.644;9.006;2022-07-29T09:10:55;5.95;;;3.75;;
21905;SDS011;11117;48.644;9.006;2022-07-29T09:13:21;6.38;;;4.07;;
21905;SDS011;11117;48.644;9.006;2022-07-29T09:19:30;4.53;;;3.58;;
21905;SDS011;11117;48.644;9.006;2022-07-29T09:29:27;6.82;;;3.88;;
21905;SDS011;11117;48.644;9.006;2022-07-29T09:38:43;8.00;;;4.20;;
21905;SDS011;11117;48.644;9.006;2022-07-29T09:42:02;9.30;;;4.25;;
21905;SDS011;11117;48.644;9.006;2022-07-29T10:00:34;8.57;;;4.03;;
21905;SDS011;11117;48.644;9.006;2022-07-29T10:03:49;4.63;;;3.55;;
21905;SDS011;11117;48.644;9.006;2022-07-29T10:06:16;6.68;;;4.20;;
21905;SDS011;11117;48.644;9.006;2022-07-29T10:08:42;7.85;;;3.45;;
21905;SDS011;11117;48.644;9.006;2022-07-29T10:11:09;7.18;;;3.67;;
21905;SDS011;11117;48.644;9.006;2022-07-29T10:13:36;5.43;;;3.60;;
21905;SDS011;11117;48.644;9.006;2022-07-29T10:16:02;7.72;;;3.55;;
21905;SDS011;11117;48.644;9.006;2022-07-29T10:18:28;5.82;;;3.50;;
21905;SDS011;11117;48.644;9.006;2022-07-29T10:20:55;9.93;;;3.42;;
21905;SDS011;11117;48.644;9.006;2022-07-29T10:23:28;8.10;;;3.60;;
21905;SDS011;11117;48.644;9.006;2022-07-29T10:25:58;5.63;;;3.25;;
21905;SDS011;11117;48.644;9.006;2022-07-29T10:28:23;8.15;;;3.50;;
21905;SDS011;11117;48.644;9.006;2022-07-29T10:30:52;4.60;;;3.50;;
21905;SDS011;11117;48.644;9.006;2022-07-29T10:36:10;6.75;;;3.55;;
21905;SDS011;11117;48.644;9.006;2022-07-29T10:44:05;6.78;;;2.72;;
21905;SDS011;11117;48.644;9.006;2022-07-29T10:46:39;3.25;;;2.83;;
21905;SDS011;11117;48.644;9.006;2022-07-29T10:59:39;23.27;;;6.28;;
21905;SDS011;11117;48.644;9.006;2022-07-29T11:04:59;17.50;;;6.82;;
21905;SDS011;11117;48.644;9.006;2022-07-29T11:07:26;18.23;;;7.05;;
21905;SDS011;11117;48.644;9.006;2022-07-29T11:15:08;16.10;;;7.97;;
21905;SDS011;11117;48.644;9.006;2022-07-29T11:28:52;6.60;;;3.80;;
21905;SDS011;11117;48.644;9.006;2022-07-29T11:31:36;5.75;;;3.72;;
21905;SDS011;11117;48.644;9.006;2022-07-29T11:39:35;7.03;;;3.45;;
21905;SDS011;11117;48.644;9.006;2022-07-29T11:47:21;5.72;;;3.92;;
21905;SDS011;11117;48.644;9.006;2022-07-29T11:49:48;20.02;;;5.03;;
21905;SDS011;11117;48.644;9.006;2022-07-29T11:52:14;7.57;;;4.55;;
21905;SDS011;11117;48.644;9.006;2022-07-29T11:54:41;5.45;;;4.10;;
21905;SDS011;11117;48.644;9.006;2022-07-29T11:57:07;9.80;;;5.10;;
21905;SDS011;11117;48.644;9.006;2022-07-29T11:59:38;12.60;;;5.55;;
21905;SDS011;11117;48.644;9.006;2022-07-29T12:02:04;11.70;;;4.47;;
21905;SDS011;11117;48.644;9.006;2022-07-29T12:04:30;8.55;;;4.72;;
21905;SDS011;11117;48.644;9.006;2022-07-29T12:06:56;8.45;;;4.88;;
21905;SDS011;11117;48.644;9.006;2022-07-29T12:09:22;9.38;;;4.55;;
21905;SDS011;11117;48.644;9.006;2022-07-29T12:11:48;9.68;;;4.72;;
21905;SDS011;11117;48.644;9.006;2022-07-29T12:14:29;8.30;;;4.32;;
21905;SDS011;11117;48.644;9.006;2022-07-29T12:16:57;8.00;;;3.72;;
21905;SDS011;11117;48.644;9.006;2022-07-29T12:19:23;9.30;;;4.03;;
21905;SDS011;11117;48.644;9.006;2022-07-29T12:21:51;7.43;;;4.10;;
21905;SDS011;11117;48.644;9.006;2022-07-29T12:24:19;8.30;;;4.53;;
21905;SDS011;11117;48.644;9.006;2022-07-29T12:26:53;6.70;;;3.83;;
21905;SDS011;11117;48.644;9.006;2022-07-29T12:29:19;5.55;;;3.83;;
21905;SDS011;11117;48.644;9.006;2022-07-29T12:31:45;4.22;;;3.42;;
21905;SDS011;11117;48.644;9.006;2022-07-29T12:34:15;7.28;;;4.30;;
21905;SDS011;11117;48.644;9.006;2022-07-29T12:36:41;6.80;;;4.07;;
21905;SDS011;11117;48.644;9.006;2022-07-29T12:39:08;6.68;;;4.35;;
21905;SDS011;11117;48.644;9.006;2022-07-29T12:41:35;5.45;;;4.28;;
21905;SDS011;11117;48.644;9.006;2022-07-29T12:44:00;5.22;;;4.40;;
21905;SDS011;11117;48.644;9.006;2022-07-29T12:46:26;6.88;;;4.80;;
21905;SDS011;11117;48.644;9.006;2022-07-29T12:48:52;5.25;;;4.55;;
21905;SDS011;11117;48.644;9.006;2022-07-29T12:51:39;7.57;;;4.93;;
21905;SDS011;11117;48.644;9.006;2022-07-29T12:54:11;14.75;;;5.97;;
21905;SDS011;11117;48.644;9.006;2022-07-29T12:56:39;10.13;;;5.90;;
21905;SDS011;11117;48.644;9.006;2022-07-29T12:59:18;9.15;;;5.35;;
21905;SDS011;11117;48.644;9.006;2022-07-29T13:01:46;9.02;;;5.60;;
21905;SDS011;11117;48.644;9.006;2022-07-29T13:04:25;12.43;;;5.40;;
21905;SDS011;11117;48.644;9.006;2022-07-29T13:07:02;10.73;;;6.18;;
21905;SDS011;11117;48.644;9.006;2022-07-29T13:09:40;9.05;;;6.97;;
21905;SDS011;11117;48.644;9.006;2022-07-29T13:12:07;9.77;;;6.75;;
21905;SDS011;11117;48.644;9.006;2022-07-29T13:14:35;10.30;;;7.15;;
21905;SDS011;11117;48.644;9.006;2022-07-29T13:19:36;9.63;;;7.35;;
21905;SDS011;11117;48.644;9.006;2022-07-29T13:22:02;11.45;;;7.78;;
21905;SDS011;11117;48.644;9.006;2022-07-29T13:24:27;9.15;;;6.85;;
21905;SDS011;11117;48.644;9.006;2022-07-29T13:26:53;11.52;;;6.95;;
21905;SDS011;11117;48.644;9.006;2022-07-29T13:29:18;10.10;;;7.15;;
21905;SDS011;11117;48.644;9.006;2022-07-29T13:31:44;14.18;;;7.43;;
21905;SDS011;11117;48.644;9.006;2022-07-29T13:34:10;12.25;;;7.60;;
21905;SDS011;11117;48.644;9.006;2022-07-29T13:36:35;12.02;;;6.85;;
21905;SDS011;11117;48.644;9.006;2022-07-29T13:39:01;12.32;;;6.88;;
21905;SDS011;11117;48.644;9.006;2022-07-29T13:41:29;10.70;;;6.45;;
21905;SDS011;11117;48.644;9.006;2022-07-29T13:43:55;9.63;;;6.57;;
21905;SDS011;11117;48.644;9.006;2022-07-29T13:46:20;9.05;;;6.38;;
21905;SDS011;11117;48.644;9.006;2022-07-29T13:48:46;11.20;;;6.97;;
21905;SDS011;11117;48.644;9.006;2022-07-29T13:51:12;8.48;;;6.22;;
21905;SDS011;11117;48.644;9.006;2022-07-29T13:53:38;7.97;;;6.25;;
21905;SDS011;11117;48.644;9.006;2022-07-29T13:56:03;7.97;;;6.03;;
21905;SDS011;11117;48.644;9.006;2022-07-29T13:58:29;8.98;;;5.70;;
21905;SDS011;11117;48.644;9.006;2022-07-29T14:00:55;10.65;;;6.13;;
21905;SDS011;11117;48.644;9.006;2022-07-29T14:03:21;9.57;;;5.63;;
21905;SDS011;11117;48.644;9.006;2022-07-29T14:05:46;8.07;;;5.82;;
21905;SDS011;11117;48.644;9.006;2022-07-29T14:08:12;10.90;;;5.60;;
21905;SDS011;11117;48.644;9.006;2022-07-29T14:10:37;7.18;;;5.85;;
21905;SDS011;11117;48.644;9.006;2022-07-29T14:13:03;6.57;;;5.13;;
21905;SDS011;11117;48.644;9.006;2022-07-29T14:15:28;7.15;;;5.63;;
21905;SDS011;11117;48.644;9.006;2022-07-29T14:17:54;7.13;;;5.55;;
21905;SDS011;11117;48.644;9.006;2022-07-29T14:20:19;5.82;;;4.90;;
21905;SDS011;11117;48.644;9.006;2022-07-29T14:22:45;8.10;;;4.82;;
21905;SDS011;11117;48.644;9.006;2022-07-29T14:25:11;8.30;;;5.47;;
21905;SDS011;11117;48.644;9.006;2022-07-29T14:27:36;6.22;;;5.25;;
21905;SDS011;11117;48.644;9.006;2022-07-29T14:30:02;16.50;;;7.28;;
21905;SDS011;11117;48.644;9.006;2022-07-29T14:32:27;9.73;;;5.43;;
21905;SDS011;11117;48.644;9.006;2022-07-29T14:34:53;7.75;;;4.57;;
21905;SDS011;11117;48.644;9.006;2022-07-29T14:37:19;6.13;;;4.70;;
21905;SDS011;11117;48.644;9.006;2022-07-29T14:39:47;5.70;;;4.68;;
21905;SDS011;11117;48.644;9.006;2022-07-29T14:42:25;6.75;;;4.35;;
21905;SDS011;11117;48.644;9.006;2022-07-29T14:44:50;8.00;;;4.47;;
21905;SDS011;11117;48.644;9.006;2022-07-29T14:47:16;5.50;;;4.90;;
21905;SDS011;11117;48.644;9.006;2022-07-29T14:49:41;8.00;;;5.18;;
21905;SDS011;11117;48.644;9.006;2022-07-29T14:52:13;5.47;;;4.70;;
21905;SDS011;11117;48.644;9.006;2022-07-29T14:54:39;5.43;;;4.70;;
21905;SDS011;11117;48.644;9.006;2022-07-29T14:57:04;6.53;;;4.90;;
21905;SDS011;11117;48.644;9.006;2022-07-29T14:59:30;6.03;;;4.50;;
21905;SDS011;11117;48.644;9.006;2022-07-29T15:01:55;6.70;;;4.60;;
21905;SDS011;11117;48.644;9.006;2022-07-29T15:04:30;5.80;;;4.70;;
21905;SDS011;11117;48.644;9.006;2022-07-29T15:06:58;5.50;;;4.72;;
21905;SDS011;11117;48.644;9.006;2022-07-29T15:09:26;7.85;;;4.95;;
21905;SDS011;11117;48.644;9.006;2022-07-29T15:11:51;9.18;;;4.85;;
21905;SDS011;11117;48.644;9.006;2022-07-29T15:14:17;8.63;;;5.10;;
21905;SDS011;11117;48.644;9.006;2022-07-29T15:16:43;6.78;;;4.70;;
21905;SDS011;11117;48.644;9.006;2022-07-29T15:19:08;5.68;;;4.55;;
21905;SDS011;11117;48.644;9.006;2022-07-29T15:21:34;6.30;;;4.82;;
21905;SDS011;11117;48.644;9.006;2022-07-29T15:24:03;5.60;;;4.68;;
21905;SDS011;11117;48.644;9.006;2022-07-29T15:26:29;5.75;;;4.47;;
21905;SDS011;11117;48.644;9.006;2022-07-29T15:28:57;6.35;;;4.43;;
21905;SDS011;11117;48.644;9.006;2022-07-29T15:31:22;8.88;;;4.28;;
21905;SDS011;11117;48.644;9.006;2022-07-29T15:33:48;6.20;;;4.50;;
21905;SDS011;11117;48.644;9.006;2022-07-29T15:36:13;6.60;;;4.50;;
21905;SDS011;11117;48.644;9.006;2022-07-29T15:38:39;4.82;;;4.32;;
21905;SDS011;11117;48.644;9.006;2022-07-29T15:41:05;8.40;;;4.63;;
21905;SDS011;11117;48.644;9.006;2022-07-29T15:43:31;7.38;;;4.63;;
21905;SDS011;11117;48.644;9.006;2022-07-29T15:45:57;6.55;;;4.20;;
21905;SDS011;11117;48.644;9.006;2022-07-29T15:48:23;8.13;;;4.32;;
21905;SDS011;11117;48.644;9.006;2022-07-29T15:50:48;5.28;;;4.25;;
21905;SDS011;11117;48.644;9.006;2022-07-29T15:53:14;6.97;;;4.68;;
21905;SDS011;11117;48.644;9.006;2022-07-29T15:55:39;9.10;;;4.55;;
21905;SDS011;11117;48.644;9.006;2022-07-29T15:58:05;7.95;;;4.75;;
21905;SDS011;11117;48.644;9.006;2022-07-29T16:00:33;6.10;;;4.53;;
21905;SDS011;11117;48.644;9.006;2022-07-29T16:03:02;6.45;;;4.47;;
21905;SDS011;11117;48.644;9.006;2022-07-29T16:05:28;8.38;;;4.40;;
21905;SDS011;11117;48.644;9.006;2022-07-29T16:07:56;6.15;;;4.75;;
21905;SDS011;11117;48.644;9.006;2022-07-29T16:10:22;8.45;;;4.50;;
21905;SDS011;11117;48.644;9.006;2022-07-29T16:12:47;12.10;;;5.13;;
21905;SDS011;11117;48.644;9.006;2022-07-29T16:15:13;8.80;;;4.47;;
21905;SDS011;11117;48.644;9.006;2022-07-29T16:17:41;6.25;;;4.72;;
21905;SDS011;11117;48.644;9.006;2022-07-29T16:20:07;5.95;;;4.63;;
21905;SDS011;11117;48.644;9.006;2022-07-29T16:22:33;7.50;;;4.70;;
21905;SDS011;11117;48.644;9.006;2022-07-29T16:24:58;8.07;;;4.93;;
21905;SDS011;11117;48.644;9.006;2022-07-29T16:27:24;6.55;;;4.30;;
21905;SDS011;11117;48.644;9.006;2022-07-29T16:29:49;6.32;;;4.40;;
21905;SDS011;11117;48.644;9.006;2022-07-29T16:32:15;8.13;;;4.05;;
21905;SDS011;11117;48.644;9.006;2022-07-29T16:34:40;7.78;;;4.40;;
21905;SDS011;11117;48.644;9.006;2022-07-29T16:37:06;6.28;;;4.35;;
21905;SDS011;11117;48.644;9.006;2022-07-29T16:39:32;5.75;;;4.20;;
21905;SDS011;11117;48.644;9.006;2022-07-29T16:41:57;6.95;;;4.60;;
21905;SDS011;11117;48.644;9.006;2022-07-29T16:44:26;7.80;;;4.35;;
21905;SDS011;11117;48.644;9.006;2022-07-29T16:46:54;7.93;;;4.28;;
21905;SDS011;11117;48.644;9.006;2022-07-29T16:49:20;7.45;;;4.55;;
21905;SDS011;11117;48.644;9.006;2022-07-29T16:51:46;6.25;;;4.40;;
21905;SDS011;11117;48.644;9.006;2022-07-29T16:54:11;4.75;;;3.80;;
21905;SDS011;11117;48.644;9.006;2022-07-29T16:56:37;7.75;;;4.18;;
21905;SDS011;11117;48.644;9.006;2022-07-29T16:59:03;5.10;;;4.50;;
21905;SDS011;11117;48.644;9.006;2022-07-29T17:01:28;8.75;;;4.45;;
21905;SDS011;11117;48.644;9.006;2022-07-29T17:03:54;4.75;;;4.13;;
21905;SDS011;11117;48.644;9.006;2022-07-29T17:06:20;7.45;;;4.45;;
21905;SDS011;11117;48.644;9.006;2022-07-29T17:08:45;5.15;;;4.45;;
21905;SDS011;11117;48.644;9.006;2022-07-29T17:11:11;7.32;;;4.00;;
21905;SDS011;11117;48.644;9.006;2022-07-29T17:13:36;6.22;;;3.85;;